createdAt,value
2023-04-29T00:01:22.069Z,14.52
2023-04-29T00:03:50.707Z,15.77
2023-04-29T00:06:19.173Z,16.25
2023-04-29T00:08:47.516Z,19.60
2023-04-29T00:11:16.964Z,18.30
2023-04-29T00:13:45.152Z,19.65
2023-04-29T00:16:13.933Z,17.48
2023-04-29T00:18:42.639Z,18.35
2023-04-29T00:21:11.078Z,17.83
2023-04-29T00:23:39.163Z,17.40
2023-04-29T00:26:07.377Z,17.55
2023-04-29T00:28:37.121Z,16.27
2023-04-29T00:31:05.292Z,19.58
2023-04-29T00:33:33.754Z,16.33
2023-04-29T00:36:02.278Z,17.17
2023-04-29T00:38:30.793Z,19.40
2023-04-29T00:40:59.139Z,15.80
2023-04-29T00:43:27.428Z,18.05
2023-04-29T00:45:57.766Z,17.15
2023-04-29T00:48:27.350Z,18.90
2023-04-29T00:50:56.418Z,18.27
2023-04-29T00:53:24.887Z,16.55
2023-04-29T00:55:53.453Z,17.98
2023-04-29T00:58:22.847Z,16.45
2023-04-29T01:00:51.213Z,18.17
2023-04-29T01:03:20.922Z,17.95
2023-04-29T01:06:01.828Z,18.52
2023-04-29T01:08:39.170Z,18.17
2023-04-29T01:11:11.047Z,17.17
2023-04-29T01:13:46.853Z,19.13
2023-04-29T01:16:22.790Z,18.27
2023-04-29T01:18:56.468Z,21.58
2023-04-29T01:21:31.950Z,19.73
2023-04-29T01:24:02.007Z,18.20
2023-04-29T01:26:35.558Z,20.90
2023-04-29T01:29:33.960Z,21.45
2023-04-29T01:32:09.108Z,21.83
2023-04-29T01:34:45.635Z,20.15
2023-04-29T01:37:19.468Z,21.00
2023-04-29T01:39:59.520Z,20.95
2023-04-29T01:42:37.720Z,21.40
2023-04-29T01:45:12.737Z,20.38
2023-04-29T01:47:41.856Z,21.67
2023-04-29T01:50:10.788Z,22.08
2023-04-29T01:52:39.830Z,21.38
2023-04-29T01:55:11.244Z,21.75
2023-04-29T01:57:47.353Z,18.90
2023-04-29T02:00:29.320Z,21.48
2023-04-29T02:02:57.990Z,21.08
2023-04-29T02:05:36.021Z,21.55
2023-04-29T02:08:04.545Z,24.23
2023-04-29T02:10:35.996Z,22.95
2023-04-29T02:13:14.951Z,23.00
2023-04-29T02:15:43.766Z,23.85
2023-04-29T02:18:11.941Z,23.48
2023-04-29T02:20:42.188Z,23.33
2023-04-29T02:23:10.712Z,24.90
2023-04-29T02:25:40.476Z,24.65
2023-04-29T02:28:09.898Z,25.60
2023-04-29T02:30:41.102Z,26.30
2023-04-29T02:33:09.569Z,25.27
2023-04-29T02:35:37.930Z,24.50
2023-04-29T02:38:06.071Z,23.83
2023-04-29T02:40:34.210Z,26.88
2023-04-29T02:43:03.744Z,23.17
2023-04-29T02:45:32.048Z,25.25
2023-04-29T02:48:00.851Z,23.23
2023-04-29T02:50:47.896Z,26.45
2023-04-29T02:53:34.505Z,23.60
2023-04-29T02:56:02.848Z,24.75
2023-04-29T02:58:32.510Z,23.60
2023-04-29T03:01:00.797Z,24.73
2023-04-29T03:03:29.228Z,25.95
2023-04-29T03:05:57.642Z,22.98
2023-04-29T03:08:26.118Z,25.90
2023-04-29T03:10:54.266Z,26.90
2023-04-29T03:13:22.336Z,25.83
2023-04-29T03:15:52.070Z,25.83
2023-04-29T03:18:20.133Z,26.10
2023-04-29T03:20:49.379Z,24.65
2023-04-29T03:23:17.688Z,24.48
2023-04-29T03:25:45.984Z,26.42
2023-04-29T03:28:15.075Z,24.25
2023-04-29T03:30:43.386Z,23.50
2023-04-29T03:33:13.049Z,25.13
2023-04-29T03:35:41.237Z,25.80
2023-04-29T03:38:21.804Z,26.00
2023-04-29T03:40:50.622Z,28.00
2023-04-29T03:43:19.725Z,28.73
2023-04-29T03:45:48.244Z,25.75
2023-04-29T03:48:21.549Z,24.13
2023-04-29T03:50:50.324Z,23.13
2023-04-29T03:53:18.603Z,22.52
2023-04-29T03:55:48.604Z,23.73
2023-04-29T03:58:17.646Z,21.85
2023-04-29T04:00:46.259Z,21.05
2023-04-29T04:03:22.954Z,20.48
2023-04-29T04:05:51.822Z,22.70
2023-04-29T04:08:19.928Z,21.90
2023-04-29T04:11:04.767Z,21.60
2023-04-29T04:13:44.499Z,20.75
2023-04-29T04:16:13.057Z,18.90
2023-04-29T04:18:42.886Z,19.80
2023-04-29T04:21:12.264Z,21.35
2023-04-29T04:23:44.199Z,19.30
2023-04-29T04:26:15.663Z,22.10
2023-04-29T04:29:03.094Z,21.63
2023-04-29T04:31:41.554Z,20.98
2023-04-29T04:34:12.268Z,19.48
2023-04-29T04:36:41.478Z,19.38
2023-04-29T04:39:09.662Z,19.13
2023-04-29T04:41:38.008Z,20.33
2023-04-29T04:44:06.511Z,19.65
2023-04-29T04:46:43.410Z,18.48
2023-04-29T04:49:30.071Z,17.35
2023-04-29T04:51:58.822Z,18.50
2023-04-29T04:54:27.293Z,17.98
2023-04-29T04:57:06.276Z,17.50
2023-04-29T04:59:34.950Z,18.67
2023-04-29T05:02:04.374Z,18.02
2023-04-29T05:04:33.977Z,17.67
2023-04-29T05:07:02.414Z,17.80
2023-04-29T05:09:37.529Z,16.75
2023-04-29T05:12:05.987Z,16.98
2023-04-29T05:14:34.423Z,20.42
2023-04-29T05:17:03.170Z,17.52
2023-04-29T05:19:31.512Z,20.30
2023-04-29T05:22:01.350Z,20.98
2023-04-29T05:24:30.607Z,19.30
2023-04-29T05:26:58.757Z,20.00
2023-04-29T05:29:27.533Z,17.58
2023-04-29T05:32:00.023Z,16.00
2023-04-29T05:34:28.572Z,17.23
2023-04-29T05:36:57.566Z,17.70
2023-04-29T05:39:27.818Z,17.95
2023-04-29T05:42:07.981Z,20.00
2023-04-29T05:44:40.102Z,18.20
2023-04-29T05:47:08.391Z,17.65
2023-04-29T05:49:36.925Z,16.45
2023-04-29T05:52:06.742Z,15.27
2023-04-29T05:54:41.725Z,13.65
2023-04-29T05:57:10.030Z,13.63
2023-04-29T05:59:38.073Z,11.57
2023-04-29T06:02:07.553Z,11.60
2023-04-29T06:04:37.957Z,12.80
2023-04-29T06:07:18.894Z,10.40
2023-04-29T06:10:13.088Z,12.02
2023-04-29T06:12:44.091Z,10.15
2023-04-29T06:15:13.892Z,12.30
2023-04-29T06:17:42.439Z,11.68
2023-04-29T06:20:11.696Z,11.27
2023-04-29T06:22:41.270Z,12.93
2023-04-29T06:25:10.582Z,13.27
2023-04-29T06:27:51.047Z,15.02
2023-04-29T06:30:22.382Z,14.35
2023-04-29T06:32:50.616Z,12.05
2023-04-29T06:35:19.058Z,14.82
2023-04-29T06:38:08.305Z,14.23
2023-04-29T06:40:42.564Z,14.25
2023-04-29T06:43:17.929Z,14.93
2023-04-29T06:46:04.828Z,13.32
2023-04-29T06:48:41.904Z,12.10
2023-04-29T06:51:10.178Z,12.20
2023-04-29T06:53:39.756Z,11.98
2023-04-29T06:56:09.022Z,11.35
2023-04-29T06:58:38.610Z,11.80
2023-04-29T07:01:09.467Z,12.50
2023-04-29T07:03:38.067Z,13.23
2023-04-29T07:06:06.663Z,13.63
2023-04-29T07:08:34.913Z,12.38
2023-04-29T07:11:04.343Z,13.35
2023-04-29T07:13:32.856Z,14.73
2023-04-29T07:16:02.365Z,14.35
2023-04-29T07:18:30.414Z,14.60
2023-04-29T07:21:02.346Z,15.23
2023-04-29T07:23:30.582Z,15.40
2023-04-29T07:25:59.216Z,16.40
2023-04-29T07:28:27.956Z,15.60
2023-04-29T07:30:57.523Z,16.85
2023-04-29T07:33:27.231Z,17.70
2023-04-29T07:35:55.433Z,16.50
2023-04-29T07:38:23.755Z,16.52
2023-04-29T07:40:52.035Z,17.55
2023-04-29T07:43:20.494Z,19.02
2023-04-29T07:45:49.038Z,16.38
2023-04-29T07:48:17.358Z,16.55
2023-04-29T07:50:47.200Z,14.75
2023-04-29T07:53:17.489Z,15.80
2023-04-29T07:55:45.631Z,14.98
2023-04-29T07:58:14.186Z,16.55
2023-04-29T08:00:42.451Z,15.57
2023-04-29T08:03:11.231Z,16.45
2023-04-29T08:05:39.793Z,16.52
2023-04-29T08:08:09.655Z,16.77
2023-04-29T08:10:43.258Z,16.38
2023-04-29T08:13:11.608Z,16.92
2023-04-29T08:15:41.070Z,18.10
2023-04-29T08:18:09.283Z,17.35
2023-04-29T08:20:37.579Z,18.98
2023-04-29T08:23:05.922Z,19.75
2023-04-29T08:25:35.611Z,19.08
2023-04-29T08:28:04.099Z,20.98
2023-04-29T08:30:32.192Z,21.95
2023-04-29T08:33:00.620Z,20.23
2023-04-29T08:35:28.859Z,22.38
2023-04-29T08:37:57.859Z,19.02
2023-04-29T08:40:26.701Z,20.77
2023-04-29T08:42:57.186Z,23.20
2023-04-29T08:45:26.360Z,20.30
2023-04-29T08:47:56.597Z,20.73
2023-04-29T08:50:25.906Z,21.67
2023-04-29T08:52:54.690Z,21.45
2023-04-29T08:55:23.273Z,20.08
2023-04-29T08:57:53.940Z,22.65
2023-04-29T09:00:25.729Z,23.30
2023-04-29T09:02:57.786Z,20.70
2023-04-29T09:05:27.394Z,22.15
2023-04-29T09:07:59.759Z,25.23
2023-04-29T09:10:28.637Z,21.67
2023-04-29T09:12:58.278Z,19.83
2023-04-29T09:15:28.122Z,19.02
2023-04-29T09:17:57.418Z,21.73
2023-04-29T09:20:29.206Z,18.73
2023-04-29T09:22:59.228Z,20.17
2023-04-29T09:25:27.813Z,19.15
2023-04-29T09:27:57.170Z,18.55
2023-04-29T09:30:27.140Z,18.90
2023-04-29T09:33:07.608Z,17.75
2023-04-29T09:35:37.105Z,19.83
2023-04-29T09:38:13.622Z,18.55
2023-04-29T09:40:56.730Z,14.20
2023-04-29T09:43:26.524Z,14.40
2023-04-29T09:45:56.099Z,13.73
2023-04-29T09:48:33.767Z,10.30
2023-04-29T09:51:03.914Z,9.07
2023-04-29T09:53:33.084Z,10.10
2023-04-29T09:56:02.537Z,7.57
2023-04-29T09:58:34.202Z,6.97
2023-04-29T10:01:05.057Z,6.88
2023-04-29T10:03:35.177Z,6.70
2023-04-29T10:06:05.830Z,6.32
2023-04-29T10:08:35.394Z,6.20
2023-04-29T10:11:05.945Z,6.18
2023-04-29T10:13:38.555Z,6.20
2023-04-29T10:16:16.931Z,5.50
2023-04-29T10:18:53.454Z,6.28
2023-04-29T10:21:28.115Z,6.68
2023-04-29T10:23:58.688Z,6.28
2023-04-29T10:26:29.444Z,5.15
2023-04-29T10:29:00.025Z,5.03
2023-04-29T10:31:30.325Z,5.30
2023-04-29T10:34:00.608Z,4.75
2023-04-29T10:36:31.712Z,5.70
2023-04-29T10:39:06.208Z,5.40
2023-04-29T10:41:39.086Z,5.10
2023-04-29T10:44:07.741Z,5.78
2023-04-29T10:46:38.222Z,5.35
2023-04-29T10:49:08.346Z,5.75
2023-04-29T10:51:40.902Z,5.90
2023-04-29T10:54:11.129Z,6.15
2023-04-29T10:56:41.654Z,7.05
2023-04-29T10:59:14.459Z,6.97
2023-04-29T11:01:46.688Z,6.82
2023-04-29T11:04:15.402Z,6.70
2023-04-29T11:06:46.400Z,7.10
2023-04-29T11:09:16.960Z,7.45
2023-04-29T11:11:49.896Z,6.93
2023-04-29T11:14:26.320Z,5.50
2023-04-29T11:16:58.979Z,6.53
2023-04-29T11:19:32.830Z,6.22
2023-04-29T11:22:26.512Z,6.45
2023-04-29T11:24:58.079Z,7.65
2023-04-29T11:27:27.906Z,5.82
2023-04-29T11:29:58.860Z,6.20
2023-04-29T11:32:30.348Z,6.20
2023-04-29T11:35:09.925Z,6.03
2023-04-29T11:37:38.021Z,6.55
2023-04-29T11:40:07.907Z,5.63
2023-04-29T11:42:36.787Z,6.25
2023-04-29T11:45:06.995Z,6.30
2023-04-29T11:47:37.470Z,7.22
2023-04-29T11:50:06.417Z,6.15
2023-04-29T11:52:37.114Z,7.65
2023-04-29T11:55:07.674Z,7.43
2023-04-29T11:57:35.983Z,9.20
2023-04-29T12:00:07.385Z,7.90
2023-04-29T12:02:40.788Z,10.80
2023-04-29T12:05:10.247Z,12.38
2023-04-29T12:07:38.797Z,10.80
2023-04-29T12:10:10.918Z,12.38
2023-04-29T12:12:41.034Z,11.18
2023-04-29T12:15:10.665Z,13.15
2023-04-29T12:17:41.004Z,11.95
2023-04-29T12:20:12.035Z,13.05
2023-04-29T12:22:40.528Z,11.63
2023-04-29T12:25:09.843Z,14.68
2023-04-29T12:27:41.560Z,12.43
2023-04-29T12:30:11.412Z,14.05
2023-04-29T12:32:41.257Z,11.35
2023-04-29T12:35:17.596Z,12.35
2023-04-29T12:37:49.678Z,12.50
2023-04-29T12:40:20.459Z,13.30
2023-04-29T12:42:49.176Z,12.75
2023-04-29T12:45:31.743Z,12.88
2023-04-29T12:48:07.258Z,12.55
2023-04-29T12:50:39.284Z,12.43
2023-04-29T12:53:08.821Z,10.73
2023-04-29T12:55:38.462Z,12.02
2023-04-29T12:58:07.537Z,11.52
2023-04-29T13:00:37.552Z,11.25
2023-04-29T13:03:07.480Z,12.75
2023-04-29T13:05:36.268Z,11.48
2023-04-29T13:08:06.011Z,10.32
2023-04-29T13:10:34.918Z,9.93
2023-04-29T13:13:02.980Z,8.07
2023-04-29T13:15:31.456Z,8.35
2023-04-29T13:17:59.706Z,6.95
2023-04-29T13:20:29.582Z,7.40
2023-04-29T13:22:57.706Z,7.47
2023-04-29T13:25:25.874Z,7.47
2023-04-29T13:27:54.936Z,6.88
2023-04-29T13:30:23.835Z,7.45
2023-04-29T13:32:55.443Z,7.05
2023-04-29T13:35:27.183Z,6.72
2023-04-29T13:37:57.134Z,6.65
2023-04-29T13:40:28.060Z,7.53
2023-04-29T13:43:04.380Z,6.57
2023-04-29T13:45:38.883Z,7.13
2023-04-29T13:48:20.836Z,6.10
2023-04-29T13:59:08.656Z,6.93
2023-04-29T14:02:08.056Z,6.40
2023-04-29T14:04:07.036Z,8.32
2023-04-29T14:06:35.272Z,6.65
2023-04-29T14:09:05.031Z,6.00
2023-04-29T14:11:36.833Z,6.65
2023-04-29T14:14:05.609Z,5.68
2023-04-29T14:16:34.003Z,5.93
2023-04-29T14:19:03.938Z,8.13
2023-04-29T14:21:33.532Z,8.52
2023-04-29T14:24:03.441Z,7.30
2023-04-29T14:26:33.150Z,7.50
2023-04-29T14:29:01.464Z,7.80
2023-04-29T14:31:31.291Z,7.55
2023-04-29T14:34:00.423Z,7.60
2023-04-29T14:36:28.941Z,8.65
2023-04-29T14:38:57.197Z,8.57
2023-04-29T14:41:25.706Z,8.82
2023-04-29T14:43:55.306Z,9.23
2023-04-29T14:46:23.783Z,9.95
2023-04-29T14:48:52.014Z,11.02
2023-04-29T14:51:20.518Z,10.20
2023-04-29T14:53:48.721Z,10.55
2023-04-29T14:57:30.379Z,11.52
2023-04-29T15:04:04.606Z,11.77
2023-04-29T15:07:46.262Z,14.07
2023-04-29T15:42:31.087Z,8.05
2023-04-29T15:44:59.322Z,9.02
2023-04-29T15:47:27.604Z,8.95
2023-04-29T15:49:56.753Z,9.32
2023-04-29T15:52:25.154Z,9.98
2023-04-29T15:54:53.222Z,11.95
2023-04-29T15:57:21.485Z,8.57
2023-04-29T15:59:51.828Z,9.73
2023-04-29T16:02:21.285Z,10.80
2023-04-29T16:04:49.686Z,10.77
2023-04-29T16:07:18.393Z,13.20
2023-04-29T16:09:46.717Z,12.75
2023-04-29T16:12:15.118Z,13.05
2023-04-29T16:14:43.776Z,15.45
2023-04-29T16:17:13.832Z,14.75
2023-04-29T16:19:42.023Z,18.25
2023-04-29T16:22:10.264Z,17.75
2023-04-29T16:25:04.257Z,18.92
2023-04-29T16:27:32.613Z,19.80
2023-04-29T16:30:01.037Z,23.67
2023-04-29T16:32:31.535Z,20.80
2023-04-29T16:35:01.363Z,21.45
2023-04-29T16:37:33.322Z,22.20
2023-04-29T16:40:02.000Z,20.92
2023-04-29T16:42:30.129Z,23.90
2023-04-29T16:44:58.440Z,24.67
2023-04-29T16:47:27.662Z,22.40
2023-04-29T16:49:57.829Z,26.85
2023-04-29T16:52:26.029Z,25.52
2023-04-29T16:54:56.365Z,27.77
2023-04-29T16:57:26.633Z,24.08
2023-04-29T16:59:56.504Z,25.30
2023-04-29T17:02:25.087Z,26.83
2023-04-29T17:04:53.659Z,27.20
2023-04-29T17:07:23.961Z,25.08
2023-04-29T17:09:52.707Z,25.45
2023-04-29T17:12:21.044Z,25.38
2023-04-29T17:14:49.456Z,26.88
2023-04-29T17:17:18.098Z,25.63
2023-04-29T17:19:50.098Z,24.38
2023-04-29T17:22:18.520Z,24.63
2023-04-29T17:24:49.074Z,24.23
2023-04-29T17:27:17.415Z,25.63
2023-04-29T17:29:45.793Z,24.48
2023-04-29T17:32:17.319Z,25.23
2023-04-29T17:34:45.488Z,22.92
2023-04-29T17:37:14.097Z,25.42
2023-04-29T17:39:42.349Z,24.13
2023-04-29T17:42:12.174Z,22.23
2023-04-29T17:44:40.363Z,24.52
2023-04-29T17:47:11.021Z,24.15
2023-04-29T17:49:40.272Z,23.55
2023-04-29T17:52:08.944Z,23.73
2023-04-29T17:54:39.814Z,29.30
2023-04-29T17:57:08.744Z,24.27
2023-04-29T17:59:38.966Z,24.30
2023-04-29T18:02:07.281Z,24.50
2023-04-29T18:04:37.412Z,26.00
2023-04-29T18:07:06.763Z,23.60
2023-04-29T18:09:35.855Z,25.65
2023-04-29T18:12:05.047Z,29.38
2023-04-29T18:14:33.329Z,29.27
2023-04-29T18:17:03.331Z,28.52
2023-04-29T18:19:31.491Z,27.27
2023-04-29T18:22:01.420Z,28.80
2023-04-29T18:24:29.729Z,34.95
2023-04-29T18:26:58.280Z,31.40
2023-04-29T18:29:26.969Z,28.35
2023-04-29T18:31:55.940Z,25.35
2023-04-29T18:34:26.228Z,27.60
2023-04-29T18:36:54.924Z,26.50
2023-04-29T18:39:23.018Z,26.92
2023-04-29T18:41:51.190Z,26.95
2023-04-29T18:44:19.461Z,30.70
2023-04-29T18:46:47.552Z,28.83
2023-04-29T18:49:17.011Z,26.33
2023-04-29T18:51:47.509Z,25.45
2023-04-29T18:54:16.916Z,27.98
2023-04-29T18:56:47.428Z,27.88
2023-04-29T18:59:19.326Z,25.95
2023-04-29T19:01:49.000Z,26.10
2023-04-29T19:04:17.687Z,27.77
2023-04-29T19:06:48.190Z,25.80
2023-04-29T19:09:16.329Z,27.75
2023-04-29T19:11:44.364Z,25.02
2023-04-29T19:14:12.525Z,23.38
2023-04-29T19:16:40.624Z,22.10
2023-04-29T19:19:08.987Z,24.80
2023-04-29T19:21:37.878Z,21.70
2023-04-29T19:24:07.824Z,24.08
2023-04-29T19:26:36.809Z,25.40
2023-04-29T19:29:07.426Z,22.38
2023-04-29T19:31:35.721Z,26.13
2023-04-29T19:34:03.931Z,23.83
2023-04-29T19:36:33.258Z,23.00
2023-04-29T19:39:02.457Z,22.73
2023-04-29T19:41:34.712Z,22.98
2023-04-29T19:44:03.525Z,22.77
2023-04-29T19:46:31.880Z,22.08
2023-04-29T19:49:00.067Z,21.15
2023-04-29T19:51:28.709Z,21.58
2023-04-29T19:54:00.170Z,23.13
2023-04-29T19:56:28.367Z,21.27
2023-04-29T19:58:57.884Z,23.60
2023-04-29T20:01:26.129Z,22.70
2023-04-29T20:03:54.442Z,22.55
2023-04-29T20:06:22.607Z,22.05
2023-04-29T20:08:50.791Z,23.45
2023-04-29T20:11:18.826Z,20.40
2023-04-29T20:13:47.793Z,23.35
2023-04-29T20:16:17.577Z,21.95
2023-04-29T20:18:45.763Z,21.95
2023-04-29T20:21:14.373Z,23.00
2023-04-29T20:23:42.409Z,22.02
2023-04-29T20:26:10.994Z,22.35
2023-04-29T20:28:39.903Z,23.52
2023-04-29T20:31:08.649Z,24.45
2023-04-29T20:33:38.593Z,23.75
2023-04-29T20:36:07.530Z,23.45
2023-04-29T20:38:36.141Z,22.50
2023-04-29T20:41:05.656Z,23.23
2023-04-29T20:43:33.828Z,25.33
2023-04-29T20:46:03.140Z,22.55
2023-04-29T20:48:31.604Z,23.63
2023-04-29T20:51:01.575Z,23.13
2023-04-29T20:53:31.436Z,21.60
2023-04-29T20:56:00.159Z,23.80
2023-04-29T20:58:28.321Z,23.05
2023-04-29T21:00:56.578Z,23.90
2023-04-29T21:03:26.065Z,24.92
2023-04-29T21:05:55.227Z,23.52
2023-04-29T21:08:24.940Z,23.25
2023-04-29T21:10:53.217Z,21.42
2023-04-29T21:13:21.631Z,20.83
2023-04-29T21:15:49.837Z,22.15
2023-04-29T21:18:18.015Z,21.85
2023-04-29T21:20:46.435Z,22.65
2023-04-29T21:23:14.531Z,22.05
2023-04-29T21:25:44.233Z,23.52
2023-04-29T21:28:13.865Z,23.60
2023-04-29T21:30:43.052Z,22.27
2023-04-29T21:33:11.298Z,22.30
2023-04-29T21:35:42.268Z,21.80
2023-04-29T21:38:10.688Z,24.45
2023-04-29T21:40:42.851Z,21.70
2023-04-29T21:43:12.863Z,22.60
2023-04-29T21:45:41.887Z,21.38
2023-04-29T21:48:15.877Z,20.90
2023-04-29T21:50:44.865Z,20.50
2023-04-29T21:53:16.154Z,21.13
2023-04-29T21:55:45.109Z,21.70
2023-04-29T21:58:16.171Z,20.52
2023-04-29T22:00:58.117Z,21.52
2023-04-29T22:03:26.792Z,20.05
2023-04-29T22:05:55.186Z,19.52
2023-04-29T22:08:24.101Z,19.88
2023-04-29T22:10:52.281Z,20.55
2023-04-29T22:13:21.975Z,18.77
2023-04-29T22:15:50.143Z,18.60
2023-04-29T22:18:18.349Z,19.27
2023-04-29T22:20:46.397Z,21.98
2023-04-29T22:23:14.867Z,21.50
2023-04-29T22:25:43.079Z,17.17
2023-04-29T22:28:11.293Z,20.25
2023-04-29T22:30:42.927Z,19.95
2023-04-29T22:33:11.123Z,17.67
2023-04-29T22:35:39.332Z,18.90
2023-04-29T22:38:07.711Z,18.45
2023-04-29T22:40:37.052Z,19.00
2023-04-29T22:43:05.614Z,17.50
2023-04-29T22:45:33.649Z,18.48
2023-04-29T22:48:03.267Z,18.63
2023-04-29T22:50:31.407Z,17.65
2023-04-29T22:52:59.482Z,18.17
2023-04-29T22:55:27.811Z,18.40
2023-04-29T22:57:56.262Z,16.88
2023-04-29T23:00:24.613Z,16.70
2023-04-29T23:02:52.815Z,16.75
2023-04-29T23:05:22.626Z,17.02
2023-04-29T23:07:50.910Z,15.43
2023-04-29T23:10:19.165Z,19.30
2023-04-29T23:12:47.240Z,18.17
2023-04-29T23:15:15.351Z,14.30
2023-04-29T23:17:43.456Z,15.18
2023-04-29T23:20:13.311Z,15.48
2023-04-29T23:22:43.015Z,15.25
2023-04-29T23:25:11.074Z,13.82
2023-04-29T23:27:39.134Z,14.85
2023-04-29T23:30:08.956Z,14.20
2023-04-29T23:32:37.191Z,14.55
2023-04-29T23:35:05.724Z,14.45
2023-04-29T23:37:33.958Z,13.95
2023-04-29T23:40:04.819Z,13.65
2023-04-29T23:42:32.979Z,14.95
2023-04-29T23:45:01.278Z,13.55
2023-04-29T23:47:29.641Z,13.45
2023-04-29T23:49:57.661Z,12.60
2023-04-29T23:52:25.915Z,13.15
2023-04-29T23:54:53.965Z,13.07
2023-04-29T23:57:23.789Z,12.27
2023-04-29T23:59:53.207Z,12.70
